createdAt,value
2022-08-02T00:00:12.331Z,0
2022-08-02T00:01:12.344Z,0
2022-08-02T00:02:14.545Z,0
2022-08-02T00:03:14.693Z,0
2022-08-02T00:04:16.158Z,0
2022-08-02T00:05:16.454Z,0
2022-08-02T00:06:16.383Z,0
2022-08-02T00:07:17.705Z,0
2022-08-02T00:08:17.652Z,0
2022-08-02T00:09:18.151Z,0
2022-08-02T00:10:18.282Z,0
2022-08-02T00:11:18.783Z,0
2022-08-02T00:12:20.099Z,0
2022-08-02T00:13:20.321Z,0
2022-08-02T00:14:20.813Z,0
2022-08-02T00:15:27.105Z,0
2022-08-02T00:16:43.115Z,0
2022-08-02T00:17:22.041Z,0
2022-08-02T00:18:22.986Z,0
2022-08-02T00:19:23.182Z,0
2022-08-02T00:20:23.403Z,0
2022-08-02T00:21:25.566Z,0
2022-08-02T00:22:25.687Z,0
2022-08-02T00:23:25.600Z,0
2022-08-02T00:24:46.853Z,0
2022-08-02T00:25:34.001Z,0
2022-08-02T00:26:35.501Z,0
2022-08-02T00:27:35.412Z,0
2022-08-02T00:28:43.330Z,0
2022-08-02T00:29:42.517Z,0
2022-08-02T00:30:37.955Z,0
2022-08-02T00:31:37.850Z,0
2022-08-02T00:32:38.477Z,0
2022-08-02T00:34:49.157Z,0
2022-08-02T00:35:06.096Z,0
2022-08-02T00:36:06.311Z,0
2022-08-02T00:37:06.807Z,0
2022-08-02T00:38:06.917Z,0
2022-08-02T00:39:07.418Z,0
2022-08-02T00:40:08.049Z,0
2022-08-02T00:41:12.806Z,0
2022-08-02T00:42:10.648Z,0
2022-08-02T00:43:09.075Z,0
2022-08-02T00:44:09.566Z,0
2022-08-02T00:45:09.596Z,0
2022-08-02T00:46:21.334Z,0
2022-08-02T00:47:25.151Z,0
2022-08-02T00:48:22.095Z,0
2022-08-02T00:49:27.793Z,0
2022-08-02T00:50:23.026Z,0
2022-08-02T00:51:23.225Z,0
2022-08-02T00:52:24.847Z,0
2022-08-02T00:53:25.058Z,0
2022-08-02T00:54:24.728Z,0
2022-08-02T00:55:41.939Z,0
2022-08-02T00:56:30.142Z,0
2022-08-02T00:57:30.637Z,0
2022-08-02T00:58:31.129Z,0
2022-08-02T00:59:31.217Z,0
2022-08-02T01:00:35.523Z,0
2022-08-02T01:01:33.058Z,0
2022-08-02T01:02:34.152Z,0
2022-08-02T01:03:33.078Z,0
2022-08-02T01:04:46.572Z,0
2022-08-02T01:05:47.039Z,0
2022-08-02T01:06:50.459Z,0
2022-08-02T01:07:50.658Z,0
2022-08-02T01:08:51.652Z,0
2022-08-02T01:09:52.902Z,0
2022-08-02T01:10:53.184Z,0
2022-08-02T01:11:53.387Z,0
2022-08-02T01:12:53.289Z,0
2022-08-02T01:13:54.485Z,0
2022-08-02T01:14:55.420Z,0
2022-08-02T01:15:55.620Z,0
2022-08-02T01:16:58.431Z,0
2022-08-02T01:17:56.050Z,0
2022-08-02T01:18:56.972Z,0
2022-08-02T01:19:58.197Z,0
2022-08-02T01:20:58.729Z,0
2022-08-02T01:21:58.841Z,0
2022-08-02T01:23:18.537Z,0
2022-08-02T01:24:03.412Z,0
2022-08-02T01:25:01.346Z,0
2022-08-02T01:27:03.104Z,0
2022-08-02T01:28:04.323Z,0
2022-08-02T01:29:04.953Z,0
2022-08-02T01:30:05.448Z,0
2022-08-02T01:31:08.084Z,0
2022-08-02T01:32:08.032Z,0
2022-08-02T01:33:06.413Z,0
2022-08-02T01:34:06.610Z,0
2022-08-02T01:35:07.229Z,0
2022-08-02T01:36:08.727Z,0
2022-08-02T01:37:09.392Z,0
2022-08-02T01:38:09.037Z,0
2022-08-02T01:39:10.527Z,0
2022-08-02T01:40:10.787Z,0
2022-08-02T01:41:11.713Z,0
2022-08-02T01:42:25.835Z,0
2022-08-02T01:43:17.467Z,0
2022-08-02T01:44:13.967Z,0
2022-08-02T01:45:13.888Z,0
2022-08-02T01:46:13.794Z,0
2022-08-02T01:47:14.232Z,0
2022-08-02T01:48:14.161Z,0
2022-08-02T01:49:20.953Z,0
2022-08-02T01:50:16.200Z,0
2022-08-02T01:51:16.115Z,0
2022-08-02T01:52:16.735Z,0
2022-08-02T01:53:16.933Z,0
2022-08-02T01:54:17.182Z,0
2022-08-02T01:55:57.199Z,0
2022-08-02T01:56:18.855Z,0
2022-08-02T01:57:19.417Z,0
2022-08-02T01:58:20.617Z,0
2022-08-02T01:59:20.514Z,0
2022-08-02T02:00:22.031Z,0
2022-08-02T02:01:29.826Z,0
2022-08-02T02:02:28.937Z,0
2022-08-02T02:03:24.250Z,0
2022-08-02T02:04:24.751Z,0
2022-08-02T02:05:24.953Z,0
2022-08-02T02:06:24.574Z,0
2022-08-02T02:07:25.267Z,0
2022-08-02T02:08:38.556Z,0
2022-08-02T02:09:26.765Z,0
2022-08-02T02:10:27.274Z,0
2022-08-02T02:12:30.550Z,0
2022-08-02T02:13:50.797Z,0
2022-08-02T02:14:57.416Z,0
2022-08-02T02:15:52.274Z,0
2022-08-02T02:16:50.487Z,0
2022-08-02T02:18:31.350Z,0
2022-08-02T02:19:37.138Z,0
2022-08-02T02:20:32.332Z,0
2022-08-02T02:21:32.255Z,0
2022-08-02T02:22:37.853Z,0
2022-08-02T02:23:42.435Z,0
2022-08-02T02:24:33.934Z,0
2022-08-02T02:26:00.401Z,0
2022-08-02T02:26:58.092Z,0
2022-08-02T02:27:37.101Z,0
2022-08-02T02:28:37.455Z,0
2022-08-02T02:29:37.954Z,0
2022-08-02T02:30:38.179Z,0
2022-08-02T02:31:38.393Z,0
2022-08-02T02:32:39.013Z,0
2022-08-02T02:33:45.532Z,0
2022-08-02T02:34:43.275Z,0
2022-08-02T02:35:41.771Z,0
2022-08-02T02:36:41.753Z,0
2022-08-02T02:37:42.379Z,0
2022-08-02T02:38:43.389Z,0
2022-08-02T02:39:43.732Z,0
2022-08-02T02:40:45.224Z,0
2022-08-02T02:41:45.883Z,0
2022-08-02T02:42:47.306Z,0
2022-08-02T02:43:46.281Z,0
2022-08-02T02:44:47.181Z,0
2022-08-02T02:45:48.386Z,0
2022-08-02T02:46:48.941Z,0
2022-08-02T02:47:57.995Z,0
2022-08-02T02:48:49.748Z,0
2022-08-02T02:49:51.440Z,0
2022-08-02T02:50:51.338Z,0
2022-08-02T02:51:52.259Z,0
2022-08-02T02:52:52.183Z,0
2022-08-02T02:54:50.824Z,0
2022-08-02T02:56:19.341Z,0
2022-08-02T02:57:09.557Z,0
2022-08-02T02:58:09.171Z,0
2022-08-02T02:59:10.193Z,0
2022-08-02T03:00:10.397Z,0
2022-08-02T03:01:11.406Z,0
2022-08-02T03:02:15.312Z,0
2022-08-02T03:03:12.045Z,0
2022-08-02T03:04:12.960Z,0
2022-08-02T03:05:14.597Z,0
2022-08-02T03:06:27.160Z,0
2022-08-02T03:07:15.393Z,0
2022-08-02T03:08:15.036Z,0
2022-08-02T03:09:16.788Z,0
2022-08-02T03:10:16.684Z,0
2022-08-02T03:11:21.046Z,0
2022-08-02T03:12:18.843Z,0
2022-08-02T03:13:19.083Z,0
2022-08-02T03:14:19.271Z,0
2022-08-02T03:15:19.473Z,0
2022-08-02T03:16:19.670Z,0
2022-08-02T03:17:19.571Z,0
2022-08-02T03:18:21.119Z,0
2022-08-02T03:19:21.400Z,0
2022-08-02T03:20:21.610Z,0
2022-08-02T03:21:21.957Z,0
2022-08-02T03:22:22.899Z,0
2022-08-02T03:23:23.734Z,0
2022-08-02T03:24:33.471Z,0
2022-08-02T03:25:24.372Z,0
2022-08-02T03:26:25.865Z,0
2022-08-02T03:27:26.079Z,0
2022-08-02T03:28:26.276Z,0
2022-08-02T03:29:30.394Z,0
2022-08-02T03:30:27.121Z,0
2022-08-02T03:31:28.041Z,0
2022-08-02T03:32:29.055Z,0
2022-08-02T03:33:28.674Z,0
2022-08-02T03:34:29.604Z,0
2022-08-02T03:35:35.291Z,0
2022-08-02T03:36:31.214Z,0
2022-08-02T03:37:32.402Z,0
2022-08-02T03:38:34.630Z,0
2022-08-02T03:39:32.908Z,0
2022-08-02T03:40:32.845Z,0
2022-08-02T03:41:33.759Z,0
2022-08-02T03:42:33.671Z,0
2022-08-02T03:43:39.363Z,0
2022-08-02T03:44:35.284Z,0
2022-08-02T03:45:36.850Z,0
2022-08-02T03:46:37.070Z,0
2022-08-02T03:47:37.263Z,0
2022-08-02T03:48:51.490Z,0
2022-08-02T03:49:39.508Z,0
2022-08-02T03:50:41.044Z,0
2022-08-02T03:51:40.948Z,0
2022-08-02T03:52:42.151Z,0
2022-08-02T03:53:42.769Z,0
2022-08-02T03:54:57.071Z,0
2022-08-02T03:55:44.566Z,0
2022-08-02T03:56:44.486Z,0
2022-08-02T03:57:44.990Z,0
2022-08-02T03:58:48.977Z,0
2022-08-02T03:59:51.674Z,0
2022-08-02T04:00:47.466Z,0
2022-08-02T04:01:47.283Z,0
2022-08-02T04:02:48.223Z,0
2022-08-02T04:03:48.715Z,0
2022-08-02T04:04:48.646Z,0
2022-08-02T04:06:15.942Z,0
2022-08-02T04:06:52.471Z,0
2022-08-02T04:08:52.212Z,0
2022-08-02T04:11:11.177Z,0
2022-08-02T04:12:12.425Z,0
2022-08-02T04:13:13.126Z,0
2022-08-02T04:14:15.353Z,0
2022-08-02T04:15:14.577Z,0
2022-08-02T04:16:14.802Z,0
2022-08-02T04:17:15.297Z,0
2022-08-02T04:18:15.219Z,0
2022-08-02T04:19:20.434Z,0
2022-08-02T04:20:17.072Z,0
2022-08-02T04:21:17.299Z,0
2022-08-02T04:22:17.380Z,0
2022-08-02T04:23:19.819Z,0
2022-08-02T04:24:30.359Z,0
2022-08-02T04:25:40.893Z,0
2022-08-02T04:26:27.033Z,0
2022-08-02T04:28:38.157Z,0
2022-08-02T04:28:55.353Z,0
2022-08-02T04:29:59.526Z,0
2022-08-02T04:30:56.532Z,0
2022-08-02T04:31:58.386Z,5.63
2022-08-02T04:32:57.881Z,5.63
2022-08-02T04:33:58.103Z,5.63
2022-08-02T04:35:31.143Z,5.63
2022-08-02T04:36:04.929Z,5.63
2022-08-02T04:36:59.474Z,5.63
2022-08-02T04:38:25.177Z,5.63
2022-08-02T04:39:01.097Z,5.63
2022-08-02T04:40:02.299Z,5.63
2022-08-02T04:41:03.045Z,5.63
2022-08-02T04:42:08.828Z,5.63
2022-08-02T04:43:04.756Z,5.63
2022-08-02T04:44:07.427Z,5.63
2022-08-02T04:45:06.920Z,5.63
2022-08-02T04:46:07.124Z,5.63
2022-08-02T04:47:11.819Z,5.63
2022-08-02T04:48:20.414Z,11.25
2022-08-02T04:49:10.300Z,11.25
2022-08-02T04:50:10.561Z,11.25
2022-08-02T04:51:11.298Z,16.88
2022-08-02T04:52:11.787Z,16.88
2022-08-02T04:53:12.154Z,16.88
2022-08-02T04:54:23.078Z,16.88
2022-08-02T04:55:13.589Z,16.88
2022-08-02T04:56:14.093Z,16.88
2022-08-02T04:57:14.590Z,16.88
2022-08-02T04:58:51.218Z,16.88
2022-08-02T04:59:15.451Z,16.88
2022-08-02T05:00:20.645Z,16.88
2022-08-02T05:01:16.740Z,22.5
2022-08-02T05:02:16.850Z,22.5
2022-08-02T05:03:17.779Z,16.88
2022-08-02T05:04:18.720Z,16.88
2022-08-02T05:05:26.104Z,16.88
2022-08-02T05:06:35.553Z,22.5
2022-08-02T05:07:21.049Z,16.88
2022-08-02T05:08:20.683Z,22.5
2022-08-02T05:09:22.222Z,28.13
2022-08-02T05:10:22.126Z,28.13
2022-08-02T05:11:34.245Z,28.13
2022-08-02T05:12:24.959Z,28.13
2022-08-02T05:13:23.919Z,28.13
2022-08-02T05:14:25.137Z,22.5
2022-08-02T05:15:32.953Z,28.13
2022-08-02T05:16:36.325Z,28.13
2022-08-02T05:17:25.945Z,28.13
2022-08-02T05:18:28.879Z,28.13
2022-08-02T05:19:27.509Z,28.13
2022-08-02T05:20:28.422Z,28.13
2022-08-02T05:21:29.731Z,28.13
2022-08-02T05:22:30.475Z,28.13
2022-08-02T05:23:30.377Z,28.13
2022-08-02T05:24:31.301Z,28.13
2022-08-02T05:25:31.497Z,28.13
2022-08-02T05:26:31.422Z,28.13
2022-08-02T05:27:38.526Z,28.13
2022-08-02T05:28:37.089Z,28.13
2022-08-02T05:29:34.019Z,28.13
2022-08-02T05:30:35.517Z,28.13
2022-08-02T05:31:36.034Z,28.13
2022-08-02T05:32:36.832Z,28.13
2022-08-02T05:33:36.737Z,28.13
2022-08-02T05:34:37.665Z,28.13
2022-08-02T05:35:37.583Z,28.13
2022-08-02T05:36:41.322Z,28.13
2022-08-02T05:37:48.466Z,28.13
2022-08-02T05:38:49.804Z,28.13
2022-08-02T05:40:01.343Z,33.75
2022-08-02T05:40:59.717Z,33.75
2022-08-02T05:41:47.725Z,33.75
2022-08-02T05:42:47.325Z,33.75
2022-08-02T05:43:48.272Z,33.75
2022-08-02T05:44:49.501Z,33.75
2022-08-02T05:45:49.447Z,33.75
2022-08-02T05:46:49.648Z,33.75
2022-08-02T05:47:50.465Z,33.75
2022-08-02T05:48:50.727Z,33.75
2022-08-02T05:49:51.570Z,33.75
2022-08-02T05:50:51.768Z,33.75
2022-08-02T05:51:52.494Z,33.75
2022-08-02T05:52:57.641Z,33.75
2022-08-02T05:53:53.571Z,33.75
2022-08-02T05:54:56.149Z,33.75
2022-08-02T05:55:55.649Z,39.38
2022-08-02T05:56:56.142Z,39.38
2022-08-02T05:58:00.035Z,39.38
2022-08-02T05:58:57.489Z,39.38
2022-08-02T05:59:57.714Z,39.38
2022-08-02T06:00:57.950Z,39.38
2022-08-02T06:01:58.846Z,39.38
2022-08-02T06:02:59.092Z,39.38
2022-08-02T06:03:58.999Z,39.38
2022-08-02T06:04:59.626Z,39.38
2022-08-02T06:06:00.542Z,45
2022-08-02T06:07:01.466Z,45
2022-08-02T06:08:02.139Z,50.63
2022-08-02T06:09:04.460Z,56.25
2022-08-02T06:10:04.389Z,56.25
2022-08-02T06:11:05.030Z,56.25
2022-08-02T06:12:19.748Z,61.88
2022-08-02T06:13:06.378Z,61.88
2022-08-02T06:14:07.317Z,56.25
2022-08-02T06:15:10.795Z,56.25
2022-08-02T06:16:14.016Z,61.88
2022-08-02T06:17:11.166Z,61.88
2022-08-02T06:18:09.365Z,56.25
2022-08-02T06:19:09.285Z,50.63
2022-08-02T06:20:09.937Z,50.63
2022-08-02T06:22:48.639Z,50.63
2022-08-02T06:23:42.716Z,50.63
2022-08-02T06:24:38.703Z,50.63
2022-08-02T06:26:07.149Z,50.63
2022-08-02T06:26:39.689Z,50.63
2022-08-02T06:27:39.588Z,50.63
2022-08-02T06:28:40.813Z,50.63
2022-08-02T06:29:44.154Z,50.63
2022-08-02T06:30:43.607Z,50.63
2022-08-02T06:31:41.834Z,50.63
2022-08-02T06:32:42.441Z,56.25
2022-08-02T06:33:42.748Z,50.63
2022-08-02T06:34:42.950Z,50.63
2022-08-02T06:35:42.605Z,50.63
2022-08-02T06:36:44.116Z,39.38
2022-08-02T06:37:44.830Z,33.75
2022-08-02T06:38:49.790Z,45
2022-08-02T06:39:45.617Z,56.25
2022-08-02T06:40:45.517Z,56.25
2022-08-02T06:41:46.422Z,56.25
2022-08-02T06:42:47.348Z,61.88
2022-08-02T06:43:50.392Z,61.88
2022-08-02T06:45:09.709Z,61.88
2022-08-02T06:45:49.910Z,56.25
2022-08-02T06:47:27.894Z,56.25
2022-08-02T06:47:51.526Z,56.25
2022-08-02T06:48:52.513Z,56.25
2022-08-02T06:50:10.296Z,56.25
2022-08-02T06:50:53.504Z,56.25
2022-08-02T06:51:53.709Z,56.25
2022-08-02T06:52:53.910Z,61.88
2022-08-02T06:53:55.363Z,61.88
2022-08-02T06:54:55.017Z,61.88
2022-08-02T06:56:00.648Z,61.88
2022-08-02T06:56:56.881Z,61.88
2022-08-02T06:57:59.248Z,61.88
2022-08-02T06:58:57.165Z,56.25
2022-08-02T06:59:57.830Z,56.25
2022-08-02T07:00:59.054Z,56.25
2022-08-02T07:01:59.958Z,56.25
2022-08-02T07:02:59.945Z,61.88
2022-08-02T07:04:02.121Z,61.88
2022-08-02T07:05:01.363Z,61.88
2022-08-02T07:06:01.586Z,61.88
2022-08-02T07:07:01.790Z,61.88
2022-08-02T07:08:01.694Z,61.88
2022-08-02T07:09:33.285Z,61.88
2022-08-02T07:10:17.350Z,61.88
2022-08-02T07:11:04.013Z,67.5
2022-08-02T07:12:04.710Z,67.5
2022-08-02T07:13:11.094Z,90
2022-08-02T07:14:06.142Z,129.38
2022-08-02T07:15:07.708Z,84.38
2022-08-02T07:16:07.925Z,78.75
2022-08-02T07:17:11.231Z,84.38
2022-08-02T07:18:09.453Z,84.38
2022-08-02T07:19:09.622Z,73.13
2022-08-02T07:20:10.867Z,78.75
2022-08-02T07:21:14.298Z,78.75
2022-08-02T07:22:13.779Z,78.75
2022-08-02T07:23:12.838Z,78.75
2022-08-02T07:24:13.857Z,78.75
2022-08-02T07:25:13.491Z,101.25
2022-08-02T07:26:18.609Z,101.25
2022-08-02T07:27:29.818Z,78.75
2022-08-02T07:28:29.165Z,78.75
2022-08-02T07:29:16.097Z,84.38
2022-08-02T07:30:17.003Z,95.63
2022-08-02T07:31:19.160Z,90
2022-08-02T07:32:18.344Z,84.38
2022-08-02T07:36:33.696Z,78.75
2022-08-02T07:38:13.088Z,78.75
2022-08-02T07:38:32.453Z,78.75
2022-08-02T07:39:34.914Z,78.75
2022-08-02T07:41:33.984Z,78.75
2022-08-02T07:43:33.684Z,78.75
2022-08-02T07:44:37.140Z,78.75
2022-08-02T07:45:35.543Z,78.75
2022-08-02T07:46:35.947Z,78.75
2022-08-02T07:47:37.593Z,90
2022-08-02T07:50:39.860Z,84.38
2022-08-02T07:51:42.246Z,84.38
2022-08-02T07:52:40.890Z,84.38
2022-08-02T07:54:22.367Z,78.75
2022-08-02T07:54:41.311Z,78.75
2022-08-02T07:55:56.486Z,78.75
2022-08-02T07:56:43.140Z,78.75
2022-08-02T07:57:50.934Z,140.63
2022-08-02T07:58:44.632Z,196.88
2022-08-02T07:59:45.585Z,123.75
2022-08-02T08:00:46.602Z,84.38
2022-08-02T08:01:57.128Z,84.38
2022-08-02T08:02:47.125Z,84.38
2022-08-02T08:03:48.078Z,90
2022-08-02T08:11:53.219Z,84.38
2022-08-02T08:12:54.431Z,90
2022-08-02T08:13:55.405Z,123.75
2022-08-02T08:14:55.362Z,146.25
2022-08-02T08:16:03.396Z,298.13
2022-08-02T08:16:57.131Z,433.13
2022-08-02T08:18:57.956Z,247.5
2022-08-02T08:20:08.859Z,281.25
2022-08-02T08:20:59.677Z,196.88
2022-08-02T08:21:59.470Z,95.63
2022-08-02T08:23:00.412Z,90
2022-08-02T08:24:00.654Z,84.38
2022-08-02T08:25:01.195Z,84.38
2022-08-02T08:26:01.585Z,90
2022-08-02T08:27:02.558Z,95.63
2022-08-02T08:28:02.598Z,90
2022-08-02T08:29:02.833Z,95.63
2022-08-02T08:30:03.338Z,118.13
2022-08-02T08:31:03.589Z,106.88
2022-08-02T08:32:03.801Z,84.38
2022-08-02T08:33:05.101Z,84.38
2022-08-02T08:34:05.031Z,84.38
2022-08-02T08:35:05.248Z,84.38
2022-08-02T08:36:08.152Z,84.38
2022-08-02T08:37:05.847Z,90
2022-08-02T08:38:12.436Z,140.63
2022-08-02T08:39:07.410Z,118.13
2022-08-02T08:40:19.546Z,168.75
2022-08-02T08:41:09.063Z,163.13
2022-08-02T08:42:09.698Z,106.88
2022-08-02T08:43:10.330Z,140.63
2022-08-02T08:44:10.620Z,135
2022-08-02T08:45:11.497Z,118.13
2022-08-02T08:46:12.937Z,101.25
2022-08-02T08:47:16.845Z,118.13
2022-08-02T08:48:12.944Z,180
2022-08-02T08:49:13.553Z,416.25
2022-08-02T08:50:20.234Z,511.88
2022-08-02T08:51:13.657Z,388.13
2022-08-02T08:52:16.985Z,196.88
2022-08-02T08:53:20.446Z,185.63
2022-08-02T08:54:15.155Z,180
2022-08-02T08:55:16.225Z,129.38
2022-08-02T08:56:26.011Z,286.88
2022-08-02T08:57:19.374Z,506.25
2022-08-02T08:58:18.963Z,556.88
2022-08-02T08:59:18.179Z,450
2022-08-02T09:00:18.098Z,511.88
2022-08-02T09:01:19.413Z,720
2022-08-02T09:02:39.975Z,348.75
2022-08-02T09:03:23.886Z,286.88
2022-08-02T09:05:25.472Z,371.25
2022-08-02T09:06:22.157Z,500.63
2022-08-02T09:07:26.859Z,776.25
2022-08-02T09:08:28.265Z,821.25
2022-08-02T09:09:24.276Z,438.75
2022-08-02T09:10:25.487Z,213.75
2022-08-02T09:11:26.735Z,292.5
2022-08-02T09:12:27.178Z,326.25
2022-08-02T09:14:01.876Z,303.75
2022-08-02T09:14:27.808Z,270
2022-08-02T09:15:32.621Z,230.63
2022-08-02T09:16:31.270Z,258.75
2022-08-02T09:17:33.483Z,556.88
2022-08-02T09:18:30.904Z,444.38
2022-08-02T09:19:33.172Z,472.5
2022-08-02T09:20:35.885Z,371.25
2022-08-02T09:21:33.881Z,382.5
2022-08-02T09:22:34.108Z,303.75
2022-08-02T09:23:35.040Z,343.13
2022-08-02T09:24:37.143Z,382.5
2022-08-02T09:26:36.840Z,247.5
2022-08-02T09:27:37.363Z,258.75
2022-08-02T09:28:37.358Z,286.88
2022-08-02T09:29:53.726Z,360
2022-08-02T09:30:39.620Z,354.38
2022-08-02T09:31:43.978Z,354.38
2022-08-02T09:32:40.203Z,348.75
2022-08-02T09:33:40.471Z,348.75
2022-08-02T09:34:40.731Z,343.13
2022-08-02T09:36:18.584Z,348.75
2022-08-02T09:36:45.348Z,343.13
2022-08-02T09:37:46.954Z,354.38
2022-08-02T09:38:44.447Z,354.38
2022-08-02T09:39:51.821Z,343.13
2022-08-02T09:40:45.523Z,360
2022-08-02T09:41:45.220Z,270
2022-08-02T09:42:47.714Z,275.63
2022-08-02T09:44:10.670Z,292.5
2022-08-02T09:44:47.981Z,371.25
2022-08-02T09:45:48.739Z,275.63
2022-08-02T09:46:50.118Z,320.63
2022-08-02T09:47:53.859Z,174.38
2022-08-02T09:48:58.338Z,348.75
2022-08-02T09:49:57.927Z,360
2022-08-02T09:50:52.076Z,348.75
2022-08-02T09:51:53.360Z,331.88
2022-08-02T09:53:00.458Z,337.5
2022-08-02T09:54:07.832Z,343.13
2022-08-02T09:54:56.668Z,343.13
2022-08-02T09:55:57.191Z,337.5
2022-08-02T09:56:56.849Z,337.5
2022-08-02T09:58:02.486Z,326.25
2022-08-02T09:58:58.272Z,331.88
2022-08-02T09:59:58.811Z,337.5
2022-08-02T10:01:09.100Z,331.88
2022-08-02T10:02:33.987Z,315
2022-08-02T10:03:01.671Z,309.38
2022-08-02T10:04:03.788Z,303.75
2022-08-02T10:05:12.925Z,303.75
2022-08-02T10:06:14.121Z,331.88
2022-08-02T10:07:03.331Z,331.88
2022-08-02T10:08:04.176Z,298.13
2022-08-02T10:09:05.214Z,331.88
2022-08-02T10:10:05.169Z,326.25
2022-08-02T10:11:06.138Z,326.25
2022-08-02T10:12:06.784Z,326.25
2022-08-02T10:13:08.044Z,326.25
2022-08-02T10:14:07.996Z,320.63
2022-08-02T10:15:07.904Z,320.63
2022-08-02T10:16:09.138Z,326.25
2022-08-02T10:17:09.801Z,320.63
2022-08-02T10:18:41.563Z,320.63
2022-08-02T10:20:15.854Z,320.63
2022-08-02T10:20:33.069Z,320.63
2022-08-02T10:21:33.738Z,320.63
2022-08-02T10:22:36.344Z,320.63
2022-08-02T10:23:37.948Z,320.63
2022-08-02T10:24:36.173Z,320.63
2022-08-02T10:25:37.106Z,326.25
2022-08-02T10:26:37.630Z,320.63
2022-08-02T10:28:08.055Z,320.63
2022-08-02T10:28:37.692Z,320.63
2022-08-02T10:30:06.481Z,320.63
2022-08-02T10:30:39.692Z,320.63
2022-08-02T10:31:39.614Z,326.25
2022-08-02T10:32:40.586Z,326.25
2022-08-02T10:33:41.806Z,326.25
2022-08-02T10:34:56.600Z,337.5
2022-08-02T10:35:43.321Z,343.13
2022-08-02T10:36:43.253Z,365.63
2022-08-02T10:37:44.764Z,371.25
2022-08-02T10:38:44.978Z,376.88
2022-08-02T10:39:49.088Z,371.25
2022-08-02T10:40:49.694Z,371.25
2022-08-02T10:41:47.827Z,371.25
2022-08-02T10:42:47.085Z,382.5
2022-08-02T10:43:47.746Z,382.5
2022-08-02T10:44:47.394Z,382.5
2022-08-02T10:45:56.097Z,382.5
2022-08-02T10:46:49.864Z,382.5
2022-08-02T10:47:49.513Z,382.5
2022-08-02T10:48:50.725Z,376.88
2022-08-02T10:50:08.827Z,371.25
2022-08-02T10:51:08.199Z,376.88
2022-08-02T10:52:09.229Z,371.25
2022-08-02T10:53:10.197Z,371.25
2022-08-02T10:54:11.127Z,376.88
2022-08-02T10:55:22.278Z,388.13
2022-08-02T10:56:14.920Z,388.13
2022-08-02T10:57:20.651Z,393.75
2022-08-02T10:58:13.998Z,399.38
2022-08-02T10:59:15.940Z,399.38
2022-08-02T11:00:22.804Z,399.38
2022-08-02T11:01:18.193Z,399.38
2022-08-02T11:02:18.776Z,405
2022-08-02T11:03:18.163Z,405
2022-08-02T11:04:23.336Z,405
2022-08-02T11:05:19.595Z,405
2022-08-02T11:06:31.736Z,410.63
2022-08-02T11:07:19.707Z,410.63
2022-08-02T11:08:19.962Z,410.63
2022-08-02T11:09:20.767Z,410.63
2022-08-02T11:10:20.472Z,405
2022-08-02T11:11:53.606Z,405
2022-08-02T11:12:22.581Z,393.75
2022-08-02T11:13:22.496Z,393.75
2022-08-02T11:14:23.170Z,382.5
2022-08-02T11:15:24.714Z,376.88
2022-08-02T11:16:28.709Z,360
2022-08-02T11:17:27.177Z,354.38
2022-08-02T11:18:26.399Z,348.75
2022-08-02T11:19:26.642Z,320.63
2022-08-02T11:20:26.949Z,180
2022-08-02T11:21:27.157Z,101.25
2022-08-02T11:22:36.121Z,331.88
2022-08-02T11:23:49.851Z,67.5
2022-08-02T11:24:30.084Z,56.25
2022-08-02T11:25:43.254Z,365.63
2022-08-02T11:26:32.016Z,354.38
2022-08-02T11:27:33.464Z,343.13
2022-08-02T11:28:36.671Z,337.5
2022-08-02T11:29:38.427Z,331.88
2022-08-02T11:30:38.286Z,326.25
2022-08-02T11:31:35.948Z,326.25
2022-08-02T11:32:42.557Z,326.25
2022-08-02T11:33:37.215Z,326.25
2022-08-02T11:34:54.526Z,326.25
2022-08-02T11:35:38.442Z,326.25
2022-08-02T11:36:39.991Z,320.63
2022-08-02T11:37:40.732Z,320.63
2022-08-02T11:38:40.956Z,320.63
2022-08-02T11:42:45.374Z,320.63
2022-08-02T11:43:45.657Z,320.63
2022-08-02T11:44:45.599Z,320.63
2022-08-02T11:45:47.139Z,320.63
2022-08-02T11:46:47.372Z,320.63
2022-08-02T11:47:47.602Z,320.63
2022-08-02T11:48:49.492Z,320.63
2022-08-02T11:49:48.995Z,320.63
2022-08-02T11:50:49.220Z,320.63
2022-08-02T11:51:59.120Z,320.63
2022-08-02T11:52:50.364Z,320.63
2022-08-02T11:53:50.613Z,320.63
2022-08-02T11:54:52.260Z,315
2022-08-02T11:55:52.190Z,315
2022-08-02T11:56:53.126Z,315
2022-08-02T11:58:20.485Z,315
2022-08-02T11:58:58.638Z,315
2022-08-02T11:59:55.011Z,309.38
2022-08-02T12:00:56.775Z,309.38
2022-08-02T12:02:03.027Z,309.38
2022-08-02T12:02:58.928Z,315
2022-08-02T12:03:59.025Z,309.38
2022-08-02T12:05:03.525Z,309.38
2022-08-02T12:06:30.935Z,303.75
2022-08-02T12:07:01.326Z,303.75
2022-08-02T12:08:03.771Z,309.38
2022-08-02T12:09:23.290Z,309.38
2022-08-02T12:10:02.700Z,309.38
2022-08-02T12:11:02.915Z,309.38
2022-08-02T12:12:03.154Z,315
2022-08-02T12:13:05.898Z,320.63
2022-08-02T12:14:13.512Z,157.5
2022-08-02T12:15:05.443Z,73.13
2022-08-02T12:16:08.743Z,50.63
2022-08-02T12:17:06.788Z,50.63
2022-08-02T12:18:08.019Z,67.5
2022-08-02T12:19:07.676Z,286.88
2022-08-02T12:20:08.978Z,292.5
2022-08-02T12:21:09.208Z,298.13
2022-08-02T12:22:09.291Z,292.5
2022-08-02T12:23:09.617Z,292.5
2022-08-02T12:24:19.146Z,286.88
2022-08-02T12:25:44.267Z,281.25
2022-08-02T12:26:21.565Z,281.25
2022-08-02T12:27:19.938Z,281.25
2022-08-02T12:28:28.482Z,281.25
2022-08-02T12:30:04.569Z,281.25
2022-08-02T12:30:32.906Z,275.63
2022-08-02T12:31:22.577Z,275.63
2022-08-02T12:32:24.238Z,270
2022-08-02T12:33:29.589Z,270
2022-08-02T12:34:28.152Z,264.38
2022-08-02T12:35:32.349Z,264.38
2022-08-02T12:36:30.372Z,270
2022-08-02T12:37:26.603Z,270
2022-08-02T12:38:26.293Z,258.75
2022-08-02T12:39:31.281Z,258.75
2022-08-02T12:40:30.913Z,253.13
2022-08-02T12:42:05.315Z,253.13
2022-08-02T12:42:28.038Z,253.13
2022-08-02T12:43:29.251Z,253.13
2022-08-02T12:44:31.041Z,253.13
2022-08-02T12:45:38.433Z,253.13
2022-08-02T12:46:31.066Z,247.5
2022-08-02T12:47:41.913Z,236.25
2022-08-02T12:48:36.911Z,247.5
2022-08-02T12:49:37.611Z,230.63
2022-08-02T12:50:33.278Z,236.25
2022-08-02T12:52:06.722Z,236.25
2022-08-02T12:52:34.805Z,236.25
2022-08-02T12:53:36.012Z,236.25
2022-08-02T12:54:44.040Z,236.25
2022-08-02T12:56:14.283Z,225
2022-08-02T12:56:37.584Z,230.63
2022-08-02T12:57:40.821Z,241.88
2022-08-02T12:58:38.835Z,241.88
2022-08-02T12:59:50.319Z,236.25
2022-08-02T13:00:39.558Z,236.25
2022-08-02T13:01:39.653Z,236.25
2022-08-02T13:02:39.722Z,241.88
2022-08-02T13:04:28.567Z,241.88
2022-08-02T13:05:17.511Z,241.88
2022-08-02T13:06:55.761Z,247.5
2022-08-02T13:07:17.976Z,241.88
2022-08-02T13:08:18.621Z,241.88
2022-08-02T13:09:19.829Z,241.88
2022-08-02T13:10:20.463Z,236.25
2022-08-02T13:11:23.008Z,236.25
2022-08-02T13:12:23.396Z,236.25
2022-08-02T13:13:21.328Z,230.63
2022-08-02T13:14:22.844Z,230.63
2022-08-02T13:16:04.240Z,225
2022-08-02T13:16:36.234Z,230.63
2022-08-02T13:17:25.600Z,225
2022-08-02T13:18:25.829Z,225
2022-08-02T13:19:26.271Z,219.38
2022-08-02T13:20:29.854Z,225
2022-08-02T13:22:16.647Z,219.38
2022-08-02T13:22:51.347Z,219.38
2022-08-02T13:24:05.975Z,219.38
2022-08-02T13:25:07.861Z,219.38
2022-08-02T13:25:58.280Z,219.38
2022-08-02T13:26:56.217Z,213.75
2022-08-02T13:27:57.149Z,208.13
2022-08-02T13:28:57.670Z,202.5
2022-08-02T13:29:57.308Z,208.13
2022-08-02T13:31:06.016Z,208.13
2022-08-02T13:31:58.543Z,208.13
2022-08-02T13:33:06.070Z,202.5
2022-08-02T13:34:00.008Z,202.5
2022-08-02T13:34:59.941Z,202.5
2022-08-02T13:36:00.654Z,196.88
2022-08-02T13:37:01.596Z,202.5
2022-08-02T13:38:02.817Z,196.88
2022-08-02T13:39:02.758Z,196.88
2022-08-02T13:41:03.734Z,196.88
2022-08-02T13:41:21.856Z,196.88
2022-08-02T13:42:28.642Z,191.25
2022-08-02T13:43:22.875Z,196.88
2022-08-02T13:44:27.018Z,196.88
2022-08-02T13:45:30.228Z,191.25
2022-08-02T13:46:35.026Z,185.63
2022-08-02T13:47:57.816Z,185.63
2022-08-02T13:48:34.879Z,185.63
2022-08-02T13:49:56.279Z,191.25
2022-08-02T13:50:25.713Z,185.63
2022-08-02T13:51:26.409Z,185.63
2022-08-02T13:52:27.646Z,191.25
2022-08-02T13:53:27.154Z,191.25
2022-08-02T13:54:27.390Z,185.63
2022-08-02T13:55:29.696Z,191.25
2022-08-02T13:56:41.545Z,191.25
2022-08-02T13:57:29.201Z,191.25
2022-08-02T13:58:29.836Z,185.63
2022-08-02T14:00:12.813Z,185.63
2022-08-02T14:00:47.020Z,185.63
2022-08-02T14:01:33.342Z,185.63
2022-08-02T14:02:40.006Z,185.63